Time;durP1;ratioP1;P1;durP2;ratioP2;P2;SDS_P1;SDS_P2;PMS_P1;PMS_P2;Temp;Humidity;BMP_temperature;BMP_pressure;BME280_temperature;BME280_humidity;BME280_pressure;Samples;Min_cycle;Max_cycle;Signal;HPM_P1;HPM_P2
2022/05/01 00:01:19;;;;;;;26.33;16.42;;;;;;;;;;5094636;28;20369;-72
2022/05/01 00:03:45;;;;;;;28.02;14.73;;;;;;;;;;5094644;28;20132;-71
2022/05/01 00:06:13;;;;;;;25.25;13.75;;;6.10;99.90;;;;;;5094805;28;20051;-71
2022/05/01 00:08:42;;;;;;;23.50;14.15;;;;;;;;;;5077470;28;20082;-72
2022/05/01 00:11:09;;;;;;;26.35;15.10;;;;;;;;;;5077323;28;20043;-72
2022/05/01 00:13:35;;;;;;;29.05;15.73;;;;;;;;;;5094031;28;20048;-72
2022/05/01 00:16:02;;;;;;;26.45;15.23;;;;;;;;;;5077406;28;20078;-72
2022/05/01 00:18:28;;;;;;;23.67;15.05;;;;;;;;;;5093651;28;20142;-72
2022/05/01 00:20:54;;;;;;;24.25;15.13;;;;;;;;;;5093959;28;20123;-72
2022/05/01 00:23:20;;;;;;;25.90;14.43;;;;;;;;;;5077257;28;20094;-72
2022/05/01 00:25:47;;;;;;;26.17;15.30;;;;;;;;;;5076856;28;20036;-71
2022/05/01 00:28:13;;;;;;;27.55;15.00;;;;;;;;;;5093946;28;20048;-72
2022/05/01 00:30:40;;;;;;;27.67;15.50;;;;;;;;;;5077800;28;20042;-72
2022/05/01 00:38:36;;;;;;;27.83;16.13;;;;;;;;;;5094183;28;20047;-72
2022/05/01 00:41:05;;;;;;;31.05;16.13;;;6.00;99.90;;;;;;5094059;28;20127;-72
2022/05/01 00:43:31;;;;;;;31.58;16.60;;;6.00;99.90;;;;;;5077131;28;20043;-72
2022/05/01 00:45:57;;;;;;;29.20;15.05;;;;;;;;;;5077185;28;20040;-71
2022/05/01 00:48:23;;;;;;;24.70;15.57;;;;;;;;;;5093739;28;20040;-72
2022/05/01 00:50:50;;;;;;;26.45;16.10;;;;;;;;;;5093385;28;20102;-72
2022/05/01 00:53:16;;;;;;;27.42;15.90;;;;;;;;;;5093072;28;20063;-71
2022/05/01 00:55:42;;;;;;;29.13;15.80;;;;;;;;;;5093213;28;20047;-72
2022/05/01 00:58:08;;;;;;;32.50;16.48;;;;;;;;;;5093226;28;20040;-72
2022/05/01 01:00:35;;;;;;;29.40;15.35;;;;;;;;;;5093314;28;20040;-72
2022/05/01 01:03:01;;;;;;;26.00;15.23;;;;;;;;;;5093358;28;20044;-72
2022/05/01 01:05:27;;;;;;;26.00;15.43;;;;;;;;;;5093142;28;20377;-72
2022/05/01 01:07:53;;;;;;;29.92;16.83;;;;;;;;;;5076362;28;20036;-72
2022/05/01 01:10:20;;;;;;;28.83;16.27;;;;;;;;;;5093284;28;20048;-72
2022/05/01 01:12:55;;;;;;;31.15;17.95;;;;;;;;;;5093389;28;20040;-72
2022/05/01 01:15:22;;;;;;;30.10;17.52;;;;;;;;;;5076403;28;20399;-72
2022/05/01 01:17:52;;;;;;;30.55;18.27;;;;;;;;;;5093163;28;20035;-72
2022/05/01 01:20:40;;;;;;;32.25;18.42;;;5.60;99.90;;;;;;5092898;28;20062;-72
2022/05/01 01:23:06;;;;;;;33.08;18.98;;;;;;;;;;5093029;28;20094;-72
2022/05/01 01:25:33;;;;;;;30.40;17.88;;;;;;;;;;5075915;28;20050;-72
2022/05/01 01:28:02;;;;;;;34.50;18.80;;;5.50;99.90;;;;;;5093103;28;20044;-73
2022/05/01 01:33:15;;;;;;;33.47;18.08;;;;;;;;;;5092573;28;20111;-73
2022/05/01 01:35:42;;;;;;;31.08;18.45;;;;;;;;;;5092808;28;20047;-73
2022/05/01 01:38:08;;;;;;;31.17;18.65;;;;;;;;;;5093257;28;20032;-74
2022/05/01 01:40:45;;;;;;;32.60;18.45;;;5.40;99.90;;;;;;5092747;28;20368;-74
2022/05/01 01:43:12;;;;;;;31.30;17.52;;;;;;;;;;5092412;28;20040;-74
2022/05/01 01:45:38;;;;;;;35.45;19.42;;;;;;;;;;5092401;28;20046;-74
2022/05/01 01:48:10;;;;;;;33.13;18.65;;;5.30;99.90;;;;;;5075812;28;20392;-74
2022/05/01 01:50:37;;;;;;;32.50;18.50;;;;;;;;;;5075552;28;20051;-74
2022/05/01 01:53:03;;;;;;;32.28;18.73;;;;;;;;;;5075283;28;20054;-75
2022/05/01 01:55:33;;;;;;;35.28;19.30;;;5.30;99.90;;;;;;5092447;28;20115;-75
2022/05/01 01:58:00;;;;;;;34.85;17.83;;;;;;;;;;5092599;28;20464;-75
2022/05/01 02:00:27;;;;;;;33.13;18.48;;;5.20;99.90;;;;;;5075753;28;20040;-74
2022/05/01 02:02:59;;;;;;;32.50;18.92;;;;;;;;;;5092192;28;20043;-74
2022/05/01 02:05:26;;;;;;;32.13;17.55;;;5.10;99.90;;;;;;5075706;28;20365;-74
2022/05/01 02:07:53;;;;;;;27.67;17.77;;;;;;;;;;5092427;28;20036;-74
2022/05/01 02:10:19;;;;;;;33.67;18.40;;;;;;;;;;5075589;28;20415;-74
2022/05/01 02:12:45;;;;;;;31.55;18.73;;;;;;;;;;5092392;28;20076;-75
2022/05/01 02:15:12;;;;;;;32.33;19.33;;;;;;;;;;5092046;28;20043;-75
2022/05/01 02:17:39;;;;;;;31.35;17.45;;;;;;;;;;5092123;28;20101;-75
2022/05/01 02:20:06;;;;;;;34.83;18.90;;;5.00;99.90;;;;;;5075658;28;20109;-75
2022/05/01 02:22:32;;;;;;;35.65;18.90;;;;;;;;;;5092454;28;20487;-75
2022/05/01 02:24:58;;;;;;;32.53;18.17;;;;;;;;;;5075857;28;20079;-75
2022/05/01 02:27:24;;;;;;;32.42;19.05;;;;;;;;;;5075836;28;20044;-75
2022/05/01 02:29:50;;;;;;;32.28;18.70;;;;;;;;;;5092243;28;20047;-75
2022/05/01 02:32:16;;;;;;;35.42;18.98;;;;;;;;;;5092329;28;20044;-75
2022/05/01 02:34:42;;;;;;;31.35;18.60;;;;;;;;;;5092262;28;20044;-75
2022/05/01 02:37:08;;;;;;;32.25;18.85;;;;;;;;;;5092147;28;20086;-75
2022/05/01 02:39:34;;;;;;;32.22;18.95;;;5.00;99.90;;;;;;5092152;28;20047;-74
2022/05/01 02:42:01;;;;;;;33.03;18.27;;;;;;;;;;5077953;28;20039;-75
2022/05/01 02:44:27;;;;;;;32.42;17.85;;;;;;;;;;5096249;28;20476;-74
2022/05/01 02:46:54;;;;;;;33.78;17.95;;;;;;;;;;5079558;28;20082;-74
2022/05/01 02:49:22;;;;;;;30.73;17.40;;;;;;;;;;5095727;28;20047;-74
2022/05/01 02:51:48;;;;;;;28.77;16.63;;;;;;;;;;5079174;28;20044;-74
2022/05/01 02:54:14;;;;;;;27.70;15.88;;;;;;;;;;5095459;28;20071;-74
2022/05/01 02:56:40;;;;;;;22.63;14.32;;;;;;;;;;5096174;28;20036;-74
2022/05/01 02:59:09;;;;;;;24.38;13.32;;;;;;;;;;5095654;28;20502;-74
2022/05/01 03:01:38;;;;;;;17.00;11.73;;;;;;;;;;5095586;28;20489;-74
2022/05/01 03:04:04;;;;;;;19.60;12.05;;;;;;;;;;5095496;28;20048;-75
2022/05/01 03:06:32;;;;;;;15.80;10.40;;;;;;;;;;5078446;28;20084;-74
2022/05/01 03:08:58;;;;;;;16.38;9.63;;;;;;;;;;5095329;28;20484;-74
2022/05/01 03:11:24;;;;;;;18.27;9.90;;;;;;;;;;5095439;28;20039;-74
2022/05/01 03:13:50;;;;;;;17.73;10.07;;;;;;;;;;5095184;28;20105;-74
2022/05/01 03:16:16;;;;;;;15.73;9.93;;;;;;;;;;5062030;28;20126;-74
2022/05/01 03:24:12;;;;;;;14.10;9.75;;;;;;;;;;5095002;28;20040;-74
2022/05/01 03:26:38;;;;;;;17.73;10.23;;;;;;;;;;5078537;28;20085;-74
2022/05/01 03:29:04;;;;;;;19.50;10.93;;;;;;;;;;5095322;28;20075;-74
2022/05/01 03:31:31;;;;;;;18.95;12.45;;;;;;;;;;5095104;28;20040;-74
2022/05/01 03:33:57;;;;;;;21.63;11.68;;;;;;;;;;5061589;28;20472;-74
2022/05/01 03:36:23;;;;;;;20.05;12.48;;;;;;;;;;5095409;28;20479;-74
2022/05/01 03:38:49;;;;;;;19.63;12.00;;;;;;;;;;5062074;28;20054;-74
2022/05/01 03:41:16;;;;;;;19.08;12.43;;;4.60;99.90;;;;;;5061337;28;20148;-72
2022/05/01 03:43:43;;;;;;;23.40;12.77;;;;;;;;;;5095003;28;20101;-72
2022/05/01 03:46:10;;;;;;;19.95;12.27;;;;;;;;;;5094618;28;20134;-72
2022/05/01 03:48:36;;;;;;;22.33;13.00;;;;;;;;;;5077762;28;20051;-73
2022/05/01 03:51:02;;;;;;;23.00;12.68;;;;;;;;;;5094901;28;20040;-72
2022/05/01 03:53:32;;;;;;;23.33;14.57;;;;;;;;;;5093132;28;20113;-72
2022/05/01 03:55:58;;;;;;;22.02;13.52;;;;;;;;;;5078027;28;20076;-72
2022/05/01 03:58:24;;;;;;;22.63;14.27;;;;;;;;;;5094651;28;20036;-72
2022/05/01 04:00:50;;;;;;;24.48;14.32;;;;;;;;;;5094792;28;20032;-73
2022/05/01 04:03:19;;;;;;;20.83;13.43;;;4.40;99.90;;;;;;5094837;28;20076;-72
2022/05/01 04:05:46;;;;;;;22.75;14.23;;;4.40;99.90;;;;;;5077701;28;20075;-72
2022/05/01 04:08:13;;;;;;;21.88;13.25;;;;;;;;;;5094749;28;20040;-72
2022/05/01 04:10:41;;;;;;;21.33;14.18;;;4.10;99.90;;;;;;5094119;28;20214;-72
2022/05/01 04:13:07;;;;;;;21.63;13.45;;;;;;;;;;5077067;28;20527;-72
2022/05/01 04:15:33;;;;;;;21.25;13.68;;;;;;;;;;5094025;28;20039;-72
2022/05/01 04:18:02;;;;;;;23.27;14.00;;;;;;;;;;5094169;28;20052;-72
2022/05/01 04:20:28;;;;;;;21.83;13.30;;;;;;;;;;5077731;28;20044;-72
2022/05/01 04:22:56;;;;;;;24.02;14.15;;;;;;;;;;5094210;28;20040;-72
2022/05/01 04:25:29;;;;;;;26.35;14.20;;;4.40;99.90;;;;;;5094346;28;20052;-72
2022/05/01 04:28:00;;;;;;;23.63;13.50;;;;;;;;;;5077966;28;20105;-72
2022/05/01 04:30:26;;;;;;;23.73;13.70;;;;;;;;;;5077251;28;20496;-72
2022/05/01 04:32:53;;;;;;;23.52;13.32;;;;;;;;;;5060214;28;20044;-72
2022/05/01 04:35:28;;;;;;;21.75;14.13;;;;;;;;;;5076944;28;20496;-72
2022/05/01 04:37:59;;;;;;;24.15;13.52;;;4.50;99.90;;;;;;5093831;28;20544;-72
2022/05/01 04:40:26;;;;;;;24.27;14.18;;;;;;;;;;5076889;28;20071;-72
2022/05/01 04:42:52;;;;;;;24.35;14.00;;;;;;;;;;5094272;28;20039;-72
2022/05/01 04:45:18;;;;;;;25.10;14.50;;;;;;;;;;5093890;28;20040;-73
2022/05/01 04:47:45;;;;;;;25.48;14.25;;;;;;;;;;5093601;28;20495;-72
2022/05/01 04:50:11;;;;;;;24.52;13.98;;;;;;;;;;5077102;28;20035;-73
2022/05/01 04:52:38;;;;;;;29.25;16.02;;;;;;;;;;5094180;28;20369;-74
2022/05/01 04:55:05;;;;;;;25.20;15.05;;;;;;;;;;5077087;28;20056;-74
2022/05/01 04:57:31;;;;;;;27.58;15.18;;;;;;;;;;5093705;28;20036;-74
2022/05/01 04:59:58;;;;;;;26.73;15.23;;;;;;;;;;5077196;28;20123;-74
2022/05/01 05:02:24;;;;;;;28.73;15.35;;;;;;;;;;5077131;28;20114;-75
2022/05/01 05:04:50;;;;;;;30.33;16.63;;;;;;;;;;5093962;28;20420;-74
2022/05/01 05:07:16;;;;;;;28.02;15.88;;;;;;;;;;5060243;28;20036;-74
2022/05/01 05:09:55;;;;;;;27.85;15.77;;;;;;;;;;5093207;28;20484;-74
2022/05/01 05:12:22;;;;;;;30.10;16.98;;;;;;;;;;5092962;28;20048;-74
2022/05/01 05:14:51;;;;;;;27.67;14.95;;;;;;;;;;5093461;28;20047;-74
2022/05/01 05:17:21;;;;;;;30.73;16.02;;;4.60;99.90;;;;;;5093653;28;20076;-75
2022/05/01 05:19:47;;;;;;;33.13;16.52;;;;;;;;;;5093055;28;20489;-74
2022/05/01 05:22:13;;;;;;;28.35;16.77;;;;;;;;;;5093103;28;20364;-75
2022/05/01 05:24:40;;;;;;;25.95;16.25;;;;;;;;;;5092842;28;20043;-75
2022/05/01 05:27:06;;;;;;;35.55;15.98;;;;;;;;;;5092735;28;20487;-75
2022/05/01 05:29:32;;;;;;;31.00;16.95;;;;;;;;;;5092695;28;20127;-74
2022/05/01 05:31:58;;;;;;;26.25;16.70;;;;;;;;;;5075893;28;20032;-74
2022/05/01 05:34:24;;;;;;;30.15;17.83;;;;;;;;;;5092562;28;20513;-74
2022/05/01 05:36:50;;;;;;;30.30;17.05;;;;;;;;;;5092609;28;20369;-74
2022/05/01 05:39:16;;;;;;;30.92;17.98;;;;;;;;;;5093126;28;20044;-74
2022/05/01 05:41:42;;;;;;;28.65;16.95;;;;;;;;;;5092927;28;20043;-74
2022/05/01 05:44:08;;;;;;;26.55;16.23;;;;;;;;;;5093028;28;20044;-74
2022/05/01 05:46:34;;;;;;;32.88;17.58;;;;;;;;;;5093095;28;20044;-74
2022/05/01 05:49:00;;;;;;;30.52;17.48;;;;;;;;;;5092880;28;20040;-74
2022/05/01 05:51:26;;;;;;;30.95;16.85;;;;;;;;;;5092377;28;20502;-73
2022/05/01 05:53:56;;;;;;;31.88;17.73;;;5.60;99.90;;;;;;5092147;28;20488;-73
2022/05/01 05:56:23;;;;;;;30.83;17.33;;;;;;;;;;5092813;28;20052;-73
2022/05/01 05:58:49;;;;;;;30.52;18.20;;;;;;;;;;5092294;28;20040;-73
2022/05/01 06:01:15;;;;;;;28.63;16.95;;;;;;;;;;5092620;28;20040;-73
2022/05/01 06:03:41;;;;;;;29.73;16.70;;;;;;;;;;5092385;28;20075;-73
2022/05/01 06:06:07;;;;;;;32.15;19.10;;;;;;;;;;5092490;28;20039;-73
2022/05/01 06:08:38;;;;;;;32.53;18.95;;;;;;;;;;5092211;28;20564;-74
2022/05/01 06:11:04;;;;;;;34.78;19.42;;;6.10;99.90;;;;;;5092109;28;20047;-74
2022/05/01 06:13:31;;;;;;;36.55;19.92;;;;;;;;;;5092201;28;20143;-71
2022/05/01 06:15:57;;;;;;;36.15;19.83;;;;;;;;;;5091407;28;20491;-71
2022/05/01 06:18:23;;;;;;;31.52;19.45;;;;;;;;;;5091997;28;20118;-71
2022/05/01 06:20:50;;;;;;;33.88;20.08;;;;;;;;;;5092068;28;20128;-71
2022/05/01 06:23:16;;;;;;;32.15;19.95;;;;;;;;;;5092184;28;20430;-71
2022/05/01 06:25:43;;;;;;;32.92;18.85;;;;;;;;;;5091947;28;20130;-72
2022/05/01 06:28:12;;;;;;;31.30;19.27;;;;;;;;;;5091825;28;20048;-71
2022/05/01 06:30:49;;;;;;;34.63;18.77;;;;;;;;;;5074965;28;20042;-71
2022/05/01 06:33:20;;;;;;;35.20;20.38;;;6.50;99.90;;;;;;5075103;28;20044;-71
2022/05/01 06:35:50;;;;;;;31.88;17.55;;;;;;;;;;5075045;28;20123;-72
2022/05/01 06:38:16;;;;;;;31.77;18.58;;;;;;;;;;5091826;28;20042;-71
2022/05/01 06:40:43;;;;;;;33.47;18.40;;;;;;;;;;5091830;28;20075;-72
2022/05/01 06:43:10;;;;;;;28.50;17.73;;;;;;;;;;5075078;28;20040;-71
2022/05/01 06:45:36;;;;;;;34.88;17.92;;;;;;;;;;5091723;28;20051;-72
2022/05/01 06:48:02;;;;;;;29.02;18.08;;;;;;;;;;5091710;28;20040;-71
2022/05/01 06:50:28;;;;;;;32.10;17.20;;;;;;;;;;5091480;28;20036;-71
2022/05/01 06:52:55;;;;;;;24.48;15.98;;;;;;;;;;5074914;28;20036;-71
2022/05/01 06:55:23;;;;;;;23.58;14.65;;;;;;;;;;5058105;28;20048;-71
2022/05/01 06:57:49;;;;;;;24.98;14.25;;;;;;;;;;5091568;28;20052;-72
2022/05/01 07:00:17;;;;;;;23.15;14.25;;;;;;;;;;5091766;28;20097;-75
2022/05/01 07:02:49;;;;;;;21.60;13.70;;;;;;;;;;5091849;28;20058;-75
2022/05/01 07:05:15;;;;;;;;;;;;;;;;;;5075225;28;20043;-75
2022/05/01 07:07:42;;;;;;;24.58;14.48;;;;;;;;;;5091507;28;20010;-75
2022/05/01 07:10:08;;;;;;;23.02;13.40;;;7.60;99.90;;;;;;5074742;28;20048;-74
2022/05/01 07:12:34;;;;;;;24.98;13.10;;;;;;;;;;5074846;28;20044;-76
2022/05/01 07:15:00;;;;;;;21.17;13.80;;;;;;;;;;5091491;28;20040;-75
2022/05/01 07:17:27;;;;;;;21.23;12.60;;;;;;;;;;5091502;28;20491;-75
2022/05/01 07:19:53;;;;;;;22.52;12.98;;;;;;;;;;5091710;28;20068;-75
2022/05/01 07:22:19;;;;;;;21.73;13.68;;;;;;;;;;5091657;28;20082;-76
2022/05/01 07:24:45;;;;;;;27.33;15.38;;;7.40;99.90;;;;;;5092071;28;20039;-76
2022/05/01 07:27:11;;;;;;;18.08;11.20;;;;;;;;;;5092359;28;20040;-75
2022/05/01 07:29:37;;;;;;;15.77;10.13;;;;;;;;;;5095548;28;20361;-75
2022/05/01 07:32:04;;;;;;;16.98;11.40;;;7.70;99.90;;;;;;5078453;28;20044;-75
2022/05/01 07:34:30;;;;;;;23.80;12.60;;;;;;;;;;5078274;28;20044;-75
2022/05/01 07:36:56;;;;;;;23.45;12.57;;;;;;;;;;5094991;28;20040;-75
2022/05/01 07:39:22;;;;;;;20.23;12.02;;;;;;;;;;5078067;28;20040;-75
2022/05/01 07:41:48;;;;;;;19.13;12.18;;;;;;;;;;5078241;28;20560;-75
2022/05/01 07:44:14;;;;;;;20.38;12.13;;;;;;;;;;5095238;28;20126;-75
2022/05/01 07:46:40;;;;;;;17.95;12.15;;;;;;;;;;5078310;28;20051;-75
2022/05/01 07:49:07;;;;;;;22.60;11.82;;;;;;;;;;5078153;28;20139;-75
2022/05/01 07:51:33;;;;;;;26.98;11.02;;;8.70;99.90;;;;;;5094895;28;20044;-75
2022/05/01 07:53:59;;;;;;;15.68;8.55;;;;;;;;;;5094425;28;20056;-74
2022/05/01 07:56:26;;;;;;;9.68;6.40;;;8.00;99.90;;;;;;5077760;28;20396;-75
2022/05/01 07:58:52;;;;;;;12.80;7.15;;;;;;;;;;5094574;28;20123;-74
2022/05/01 08:01:18;;;;;;;11.50;7.50;;;;;;;;;;5094533;28;20463;-74
2022/05/01 08:06:30;;;;;;;16.27;7.80;;;;;;;;;;5094619;28;20055;-75
2022/05/01 08:08:56;;;;;;;14.40;7.53;;;;;;;;;;5061029;28;20476;-75
2022/05/01 08:11:22;;;;;;;14.07;7.68;;;;;;;;;;5077512;28;20044;-75
2022/05/01 08:13:48;;;;;;;9.65;6.63;;;;;;;;;;5094217;28;20047;-74
2022/05/01 08:16:17;;;;;;;9.95;6.53;;;;;;;;;;5094660;28;20100;-74
2022/05/01 08:21:31;;;;;;;14.80;8.20;;;;;;;;;;5093823;28;20040;-75
2022/05/01 08:23:57;;;;;;;15.85;7.80;;;;;;;;;;5094138;28;20048;-75
2022/05/01 08:26:23;;;;;;;12.07;6.72;;;;;;;;;;5061170;28;20047;-75
2022/05/01 08:28:52;;;;;;;9.50;6.30;;;9.10;99.90;;;;;;5094188;28;20051;-75
2022/05/01 08:31:18;;;;;;;10.57;7.55;;;;;;;;;;5077922;28;20396;-75
2022/05/01 08:33:44;;;;;;;10.35;7.32;;;;;;;;;;5077398;28;20105;-75
2022/05/01 08:36:10;;;;;;;14.23;8.38;;;;;;;;;;5094598;28;20458;-75
2022/05/01 08:38:39;;;;;;;14.00;7.68;;;;;;;;;;5094047;28;20032;-75
2022/05/01 08:41:07;;;;;;;10.57;7.82;;;9.70;99.90;;;;;;5094137;28;20040;-75
2022/05/01 08:43:34;;;;;;;13.57;7.18;;;;;;;;;;5061095;28;20093;-75
2022/05/01 08:46:21;;;;;;;17.50;7.65;;;10.00;99.90;;;;;;5076992;28;20079;-74
2022/05/01 08:48:47;;;;;;;15.25;8.18;;;;;;;;;;5093816;28;20079;-74
2022/05/01 08:51:16;;;;;;;12.40;6.80;;;10.10;99.90;;;;;;5076974;28;20048;-74
2022/05/01 08:53:42;;;;;;;15.70;7.28;;;;;;;;;;5093493;28;20052;-73
2022/05/01 08:56:10;;;;;;;9.38;6.15;;;10.50;99.90;;;;;;5093683;28;20440;-72
2022/05/01 08:58:37;;;;;;;13.35;6.43;;;;;;;;;;5093834;28;20426;-73
2022/05/01 09:01:03;;;;;;;13.27;7.07;;;;;;;;;;5093582;28;20036;-73
2022/05/01 09:03:29;;;;;;;12.05;7.50;;;;;;;;;;5076765;28;20162;-72
2022/05/01 09:05:55;;;;;;;16.02;8.48;;;;;;;;;;5093695;28;20044;-72
2022/05/01 09:08:23;;;;;;;14.57;7.88;;;10.60;99.00;;;;;;5093352;28;20054;-72
2022/05/01 09:10:49;;;;;;;10.75;7.32;;;;;;;;;;5059797;28;20588;-73
2022/05/01 09:13:15;;;;;;;14.32;7.60;;;;;;;;;;5093262;28;20036;-73
2022/05/01 09:15:46;;;;;;;14.13;7.97;;;10.90;99.00;;;;;;5093666;28;20036;-73
2022/05/01 09:18:14;;;;;;;15.35;8.30;;;11.00;98.60;;;;;;5094081;28;20075;-73
2022/05/01 09:21:04;;;;;;;9.65;7.22;;;11.00;99.20;;;;;;5093575;28;20391;-73
2022/05/01 09:23:39;;;;;;;13.55;7.75;;;11.20;99.00;;;;;;5085480;28;20048;-73
2022/05/01 09:26:10;;;;;;;14.35;7.90;;;11.20;98.80;;;;;;5076383;28;20047;-73
2022/05/01 09:28:37;;;;;;;12.70;7.15;;;11.20;98.30;;;;;;5093705;28;20047;-72
2022/05/01 09:31:04;;;;;;;14.52;6.88;;;11.00;98.00;;;;;;5076709;28;20044;-72
2022/05/01 09:33:30;;;;;;;11.20;6.85;;;;;;;;;;5092934;28;20044;-72
2022/05/01 09:35:56;;;;;;;13.60;7.63;;;;;;;;;;5075875;28;20035;-73
2022/05/01 09:38:23;;;;;;;13.27;7.22;;;11.20;98.50;;;;;;5093054;28;20046;-72
2022/05/01 09:40:52;;;;;;;15.70;7.32;;;11.30;98.60;;;;;;5092930;28;20036;-72
2022/05/01 09:43:38;;;;;;;12.18;7.85;;;11.40;97.90;;;;;;5092718;28;20048;-72
2022/05/01 09:46:13;;;;;;;14.07;7.97;;;11.50;97.70;;;;;;5075809;28;20043;-72
2022/05/01 09:48:40;;;;;;;13.27;7.68;;;12.30;99.90;;;;;;5092477;28;20040;-72
2022/05/01 09:51:16;;;;;;;13.70;8.40;;;;;;;;;;5075075;28;20040;-72
2022/05/01 09:53:43;;;;;;;12.85;8.50;;;;;;;;;;5092395;28;20047;-73
2022/05/01 09:56:09;;;;;;;11.75;8.02;;;;;;;;;;5092275;28;20055;-72
2022/05/01 09:58:40;;;;;;;13.82;7.50;;;;;;;;;;5075756;28;20047;-73
2022/05/01 10:01:14;;;;;;;16.50;8.10;;;12.20;96.20;;;;;;5076168;28;20040;-73
2022/05/01 10:03:42;;;;;;;13.77;8.20;;;12.00;96.20;;;;;;5092369;28;20039;-73
2022/05/01 10:06:10;;;;;;;12.25;7.68;;;;;;;;;;5092523;28;20036;-73
2022/05/01 10:08:41;;;;;;;13.63;7.50;;;;;;;;;;5092444;28;20067;-73
2022/05/01 10:11:07;;;;;;;14.75;7.82;;;;;;;;;;5092128;28;20050;-72
2022/05/01 10:13:35;;;;;;;12.90;7.75;;;12.10;96.20;;;;;;5075103;28;20044;-73
2022/05/01 10:16:03;;;;;;;13.00;7.90;;;;;;;;;;5075350;28;20507;-72
2022/05/01 10:18:30;;;;;;;17.45;7.95;;;;;;;;;;5092011;28;20428;-73
2022/05/01 10:20:56;;;;;;;14.10;7.65;;;;;;;;;;5092095;28;20105;-72
2022/05/01 10:23:22;;;;;;;14.93;7.32;;;;;;;;;;5092224;28;20051;-73
2022/05/01 10:26:11;;;;;;;13.10;7.13;;;;;;;;;;5075392;28;20500;-73
2022/05/01 10:29:01;;;;;;;14.07;7.03;;;12.60;95.40;;;;;;5067545;28;20156;-73
2022/05/01 10:32:21;;;;;;;16.77;6.60;;;;;;;;;;5092380;28;20396;-73
2022/05/01 10:34:50;;;;;;;14.65;7.63;;;;;;;;;;5034102;28;20089;-73
2022/05/01 10:37:27;;;;;;;12.18;6.53;;;13.50;94.50;;;;;;5034166;28;20052;-73
2022/05/01 10:39:53;;;;;;;10.73;6.70;;;;;;;;;;5072085;28;20395;-73
2022/05/01 10:42:49;;;;;;;12.50;6.50;;;14.00;93.80;;;;;;5092029;28;20051;-73
2022/05/01 10:45:21;;;;;;;11.75;6.03;;;14.40;97.50;;;;;;5092355;28;20110;-73
2022/05/01 10:47:55;;;;;;;10.60;6.72;;;13.60;96.90;;;;;;5092748;28;20392;-72
2022/05/01 10:50:21;;;;;;;10.07;6.38;;;14.00;93.90;;;;;;5092216;28;20040;-73
2022/05/01 10:53:08;;;;;;;10.45;6.68;;;14.00;93.90;;;;;;5092151;28;20450;-73
2022/05/01 10:55:42;;;;;;;12.95;6.47;;;13.80;96.40;;;;;;5092187;28;20511;-72
2022/05/01 10:58:27;;;;;;;11.10;7.43;;;14.10;92.60;;;;;;5075284;28;20044;-74
2022/05/01 11:00:55;;;;;;;15.57;8.27;;;13.70;92.90;;;;;;5075516;28;20043;-74
2022/05/01 11:03:25;;;;;;;16.35;8.30;;;13.80;93.00;;;;;;5078351;28;20395;-74
2022/05/01 11:05:55;;;;;;;13.45;8.20;;;;;;;;;;5078730;28;20499;-72
2022/05/01 11:08:24;;;;;;;14.93;8.23;;;13.50;92.10;;;;;;5095625;28;20077;-72
2022/05/01 11:10:53;;;;;;;14.05;8.27;;;12.70;95.80;;;;;;5095556;28;20133;-72
2022/05/01 11:13:19;;;;;;;12.73;7.97;;;;;;;;;;5095525;28;20094;-73
2022/05/01 11:15:50;;;;;;;19.65;8.35;;;13.90;92.40;;;;;;5095603;28;20043;-73
2022/05/01 11:18:26;;;;;;;14.88;8.35;;;14.20;91.90;;;;;;5095514;28;20044;-72
2022/05/01 11:20:52;;;;;;;13.48;8.38;;;;;;;;;;5063345;28;20048;-73
2022/05/01 11:23:33;;;;;;;11.60;7.75;;;13.70;91.00;;;;;;5078413;28;20127;-73
2022/05/01 11:26:25;;;;;;;15.88;7.50;;;13.90;91.40;;;;;;5090039;28;20052;-73
2022/05/01 11:29:09;;;;;;;12.67;7.67;;;12.60;94.90;;;;;;5078568;28;20056;-72
2022/05/01 11:31:36;;;;;;;14.55;7.93;;;;;;;;;;5074165;28;20130;-73
2022/05/01 11:34:17;;;;;;;15.45;8.25;;;13.60;91.70;;;;;;5080881;28;20036;-69
2022/05/01 11:37:01;;;;;;;15.25;8.10;;;13.90;91.60;;;;;;5084933;28;20032;-74
2022/05/01 11:39:46;;;;;;;15.02;7.35;;;13.80;95.50;;;;;;5077787;28;20039;-71
2022/05/01 11:42:25;;;;;;;12.50;7.10;;;;;;;;;;5090611;28;20079;-70
2022/05/01 11:44:59;;;;;;;14.00;6.70;;;13.50;95.40;;;;;;5094833;28;20044;-70
2022/05/01 11:47:26;;;;;;;13.10;7.13;;;14.00;92.10;;;;;;5080566;28;20518;-70
2022/05/01 11:49:52;;;;;;;18.33;6.85;;;14.80;95.30;;;;;;5078078;28;20380;-72
2022/05/01 11:52:19;;;;;;;14.05;8.30;;;14.10;95.30;;;;;;5092220;28;20114;-69
2022/05/01 11:54:57;;;;;;;14.02;8.48;;;13.80;91.90;;;;;;5094207;28;20056;-73
2022/05/01 12:03:06;;;;;;;11.48;6.60;;;14.00;92.40;;;;;;5074105;28;20056;-76
2022/05/01 12:05:41;;;;;;;13.18;7.78;;;;;;;;;;5074194;28;20045;-71
2022/05/01 12:08:07;;;;;;;12.18;6.95;;;;;;;;;;5093410;28;20039;-71
2022/05/01 12:10:33;;;;;;;11.13;7.25;;;;;;;;;;5091898;28;20040;-71
2022/05/01 12:12:59;;;;;;;18.35;8.10;;;;;;;;;;5090785;28;20093;-75
2022/05/01 12:15:25;;;;;;;13.35;7.10;;;;;;;;;;5093726;28;20036;-74
2022/05/01 12:17:52;;;;;;;12.35;7.43;;;;;;;;;;5078632;28;20143;-72
2022/05/01 12:20:18;;;;;;;14.90;7.57;;;;;;;;;;5057367;28;20189;-74
2022/05/01 12:22:44;;;;;;;11.80;7.40;;;;;;;;;;5068967;28;20048;-73
2022/05/01 12:25:12;;;;;;;12.98;7.30;;;16.30;88.20;;;;;;5057509;28;20465;-73
2022/05/01 12:27:42;;;;;;;12.80;6.85;;;16.70;92.50;;;;;;5085834;28;20119;-72
2022/05/01 12:30:09;;;;;;;9.60;6.78;;;16.80;86.70;;;;;;5085449;28;20066;-73
2022/05/01 12:32:37;;;;;;;16.35;8.55;;;17.40;91.00;;;;;;5082177;28;20044;-74
2022/05/01 12:35:05;;;;;;;14.27;7.63;;;16.60;86.00;;;;;;5074270;28;20037;-74
2022/05/01 12:37:38;;;;;;;15.63;7.03;;;16.60;91.70;;;;;;5085469;28;20075;-74
2022/05/01 12:40:10;;;;;;;14.93;7.93;;;16.00;86.20;;;;;;5057026;28;20044;-74
2022/05/01 12:45:40;;;;;;;14.02;7.75;;;15.50;84.30;;;;;;5082192;28;20174;-74
2022/05/01 12:48:07;;;;;;;15.20;8.32;;;;;;;;;;5065755;28;20044;-74
2022/05/01 12:50:35;;;;;;;13.07;7.65;;;;;;;;;;5057854;28;20391;-73
2022/05/01 12:53:19;;;;;;;14.68;7.85;;;14.60;87.80;;;;;;5084421;28;20051;-73
2022/05/01 12:55:46;;;;;;;13.30;7.95;;;;;;;;;;5072967;28;20512;-72
2022/05/01 12:58:12;;;;;;;12.63;7.03;;;;;;;;;;5084990;28;20472;-72
2022/05/01 13:00:38;;;;;;;16.17;8.02;;;;;;;;;;5091159;28;20101;-73
2022/05/01 13:03:19;;;;;;;13.45;7.85;;;;;;;;;;5081292;28;20161;-73
2022/05/01 13:05:54;;;;;;;17.83;7.80;;;;;;;;;;5091360;28;20413;-73
2022/05/01 13:08:21;;;;;;;15.02;7.72;;;;;;;;;;5084578;28;20040;-73
2022/05/01 13:11:17;;;;;;;13.82;7.97;;;14.60;86.70;;;;;;5091156;28;20039;-67
2022/05/01 13:13:59;;;;;;;16.63;7.95;;;14.80;89.20;;;;;;5077297;28;20043;-74
2022/05/01 13:16:25;;;;;;;15.35;7.88;;;;;;;;;;5088412;28;20032;-75
2022/05/01 13:18:55;;;;;;;13.68;7.57;;;15.90;87.00;;;;;;5060216;28;20745;-74
2022/05/01 13:21:25;;;;;;;17.95;7.18;;;16.30;86.10;;;;;;5084827;28;20036;-72
2022/05/01 13:23:52;;;;;;;15.23;7.80;;;;;;;;;;5078738;28;20056;-72
2022/05/01 13:26:18;;;;;;;14.77;7.72;;;;;;;;;;5087929;28;20059;-75
2022/05/01 13:28:45;;;;;;;16.33;7.55;;;;;;;;;;5062553;28;20044;-75
2022/05/01 13:31:14;;;;;;;14.18;7.13;;;;;;;;;;5055931;28;20135;-73
2022/05/01 13:33:40;;;;;;;12.45;6.68;;;;;;;;;;5082806;28;20056;-73
2022/05/01 13:36:07;;;;;;;19.73;7.95;;;;;;;;;;5089048;28;20128;-72
2022/05/01 13:38:33;;;;;;;14.60;7.70;;;;;;;;;;5083977;28;20047;-74
2022/05/01 13:46:29;;;;;;;11.05;6.72;;;16.80;91.00;;;;;;5071485;28;20045;-73
2022/05/01 13:48:57;;;;;;;11.18;6.60;;;;;;;;;;5079015;28;20503;-72
2022/05/01 13:51:24;;;;;;;15.85;7.43;;;;;;;;;;5078540;28;20044;-72
2022/05/01 13:53:50;;;;;;;14.43;7.00;;;16.60;83.20;;;;;;5070821;28;20071;-72
2022/05/01 13:56:17;;;;;;;14.18;6.55;;;;;;;;;;5072309;28;20044;-72
2022/05/01 13:58:44;;;;;;;12.30;7.45;;;16.30;82.70;;;;;;5058083;28;20223;-72
2022/05/01 14:01:10;;;;;;;14.85;7.50;;;;;;;;;;5055377;28;20488;-72
2022/05/01 14:03:36;;;;;;;12.63;7.50;;;16.50;86.90;;;;;;5100275;28;20510;-70
2022/05/01 14:06:02;;;;;;;17.85;7.25;;;14.70;91.00;;;;;;5071799;28;20083;-71
2022/05/01 14:08:29;;;;;;;12.82;7.00;;;;;;;;;;5077027;28;20051;-71
2022/05/01 14:10:55;;;;;;;13.60;7.47;;;;;;;;;;5088640;28;20139;-72
2022/05/01 14:13:21;;;;;;;15.23;7.35;;;;;;;;;;5058785;28;20044;-73
2022/05/01 14:15:47;;;;;;;14.45;7.22;;;;;;;;;;5082686;28;20078;-73
2022/05/01 14:18:15;;;;;;;11.38;6.35;;;14.80;84.50;;;;;;5075422;28;20043;-73
2022/05/01 14:20:41;;;;;;;17.38;7.03;;;;;;;;;;5088538;28;20123;-72
2022/05/01 14:23:07;;;;;;;18.70;10.20;;;15.10;91.80;;;;;;5088496;28;20052;-72
2022/05/01 14:25:33;;;;;;;19.90;10.43;;;;;;;;;;5071436;28;20040;-74
2022/05/01 14:27:59;;;;;;;21.30;10.07;;;;;;;;;;5066051;28;20135;-72
2022/05/01 14:30:27;;;;;;;16.38;9.40;;;14.90;93.70;;;;;;5056401;28;20469;-72